sensor_id;sensor_type;location;lat;lon;timestamp;P1;durP1;ratioP1;P2;durP2;ratioP2
66179;SDS011;52986;44.028;20.466;2023-03-14T00:00:08;49.15;;;19.95;;
66179;SDS011;52986;44.028;20.466;2023-03-14T00:02:37;51.05;;;21.35;;
66179;SDS011;52986;44.028;20.466;2023-03-14T00:05:03;55.35;;;23.20;;
66179;SDS011;52986;44.028;20.466;2023-03-14T00:07:32;57.20;;;24.20;;
66179;SDS011;52986;44.028;20.466;2023-03-14T00:10:00;57.63;;;24.33;;
66179;SDS011;52986;44.028;20.466;2023-03-14T00:12:29;63.92;;;27.83;;
66179;SDS011;52986;44.028;20.466;2023-03-14T00:14:54;63.63;;;26.08;;
66179;SDS011;52986;44.028;20.466;2023-03-14T00:17:20;73.68;;;28.92;;
66179;SDS011;52986;44.028;20.466;2023-03-14T00:19:45;69.65;;;27.48;;
66179;SDS011;52986;44.028;20.466;2023-03-14T00:22:10;66.38;;;26.55;;
66179;SDS011;52986;44.028;20.466;2023-03-14T00:24:36;57.38;;;23.15;;
66179;SDS011;52986;44.028;20.466;2023-03-14T00:27:01;56.03;;;21.73;;
66179;SDS011;52986;44.028;20.466;2023-03-14T00:29:26;53.05;;;22.88;;
66179;SDS011;52986;44.028;20.466;2023-03-14T00:31:52;54.90;;;23.00;;
66179;SDS011;52986;44.028;20.466;2023-03-14T00:34:18;54.53;;;22.77;;
66179;SDS011;52986;44.028;20.466;2023-03-14T00:36:44;52.38;;;21.40;;
66179;SDS011;52986;44.028;20.466;2023-03-14T00:39:10;47.60;;;19.80;;
66179;SDS011;52986;44.028;20.466;2023-03-14T00:41:35;66.18;;;25.15;;
66179;SDS011;52986;44.028;20.466;2023-03-14T00:44:00;72.90;;;28.02;;
66179;SDS011;52986;44.028;20.466;2023-03-14T00:46:26;71.90;;;27.85;;
66179;SDS011;52986;44.028;20.466;2023-03-14T00:48:51;64.20;;;25.73;;
66179;SDS011;52986;44.028;20.466;2023-03-14T00:51:16;61.53;;;26.95;;
66179;SDS011;52986;44.028;20.466;2023-03-14T00:53:42;59.17;;;24.73;;
66179;SDS011;52986;44.028;20.466;2023-03-14T00:56:09;60.53;;;23.98;;
66179;SDS011;52986;44.028;20.466;2023-03-14T00:58:36;54.67;;;22.65;;
66179;SDS011;52986;44.028;20.466;2023-03-14T01:01:05;50.95;;;20.23;;
66179;SDS011;52986;44.028;20.466;2023-03-14T01:03:32;53.55;;;22.85;;
66179;SDS011;52986;44.028;20.466;2023-03-14T01:06:08;57.42;;;23.35;;
66179;SDS011;52986;44.028;20.466;2023-03-14T01:08:36;55.72;;;24.25;;
66179;SDS011;52986;44.028;20.466;2023-03-14T01:11:08;59.40;;;24.48;;
66179;SDS011;52986;44.028;20.466;2023-03-14T01:13:37;59.25;;;24.42;;
66179;SDS011;52986;44.028;20.466;2023-03-14T01:16:03;62.53;;;26.20;;
66179;SDS011;52986;44.028;20.466;2023-03-14T01:18:30;61.28;;;26.00;;
66179;SDS011;52986;44.028;20.466;2023-03-14T01:20:56;54.72;;;23.50;;
66179;SDS011;52986;44.028;20.466;2023-03-14T01:23:22;53.88;;;23.50;;
66179;SDS011;52986;44.028;20.466;2023-03-14T01:25:47;60.47;;;24.83;;
66179;SDS011;52986;44.028;20.466;2023-03-14T01:28:13;52.08;;;21.65;;
66179;SDS011;52986;44.028;20.466;2023-03-14T01:30:38;51.80;;;22.13;;
66179;SDS011;52986;44.028;20.466;2023-03-14T01:33:04;55.10;;;23.95;;
66179;SDS011;52986;44.028;20.466;2023-03-14T01:35:29;47.78;;;21.13;;
66179;SDS011;52986;44.028;20.466;2023-03-14T01:37:54;53.67;;;22.77;;
66179;SDS011;52986;44.028;20.466;2023-03-14T01:40:20;58.42;;;23.70;;
66179;SDS011;52986;44.028;20.466;2023-03-14T01:42:55;50.13;;;21.67;;
66179;SDS011;52986;44.028;20.466;2023-03-14T01:48:25;54.92;;;22.95;;
66179;SDS011;52986;44.028;20.466;2023-03-14T01:50:52;57.63;;;24.92;;
66179;SDS011;52986;44.028;20.466;2023-03-14T01:53:17;55.67;;;22.63;;
66179;SDS011;52986;44.028;20.466;2023-03-14T01:55:46;53.00;;;22.35;;
66179;SDS011;52986;44.028;20.466;2023-03-14T01:58:15;58.40;;;23.23;;
66179;SDS011;52986;44.028;20.466;2023-03-14T02:00:42;49.53;;;21.10;;
66179;SDS011;52986;44.028;20.466;2023-03-14T02:03:09;44.33;;;19.60;;
66179;SDS011;52986;44.028;20.466;2023-03-14T02:05:39;48.58;;;21.15;;
66179;SDS011;52986;44.028;20.466;2023-03-14T02:08:07;50.00;;;21.17;;
66179;SDS011;52986;44.028;20.466;2023-03-14T02:10:37;48.67;;;21.65;;
66179;SDS011;52986;44.028;20.466;2023-03-14T02:13:05;52.80;;;22.30;;
66179;SDS011;52986;44.028;20.466;2023-03-14T02:15:31;47.50;;;20.52;;
66179;SDS011;52986;44.028;20.466;2023-03-14T02:17:57;47.63;;;20.55;;
66179;SDS011;52986;44.028;20.466;2023-03-14T02:20:32;48.13;;;20.55;;
66179;SDS011;52986;44.028;20.466;2023-03-14T02:23:05;40.72;;;16.75;;
66179;SDS011;52986;44.028;20.466;2023-03-14T02:25:34;36.92;;;14.38;;
66179;SDS011;52986;44.028;20.466;2023-03-14T02:28:20;36.20;;;14.25;;
66179;SDS011;52986;44.028;20.466;2023-03-14T02:31:07;59.33;;;20.15;;
66179;SDS011;52986;44.028;20.466;2023-03-14T02:33:35;65.13;;;20.25;;
66179;SDS011;52986;44.028;20.466;2023-03-14T02:36:09;43.70;;;17.17;;
66179;SDS011;52986;44.028;20.466;2023-03-14T02:42:38;41.10;;;17.17;;
66179;SDS011;52986;44.028;20.466;2023-03-14T02:50:46;41.60;;;17.67;;
66179;SDS011;52986;44.028;20.466;2023-03-14T02:53:15;44.40;;;18.13;;
66179;SDS011;52986;44.028;20.466;2023-03-14T02:55:45;48.20;;;20.02;;
66179;SDS011;52986;44.028;20.466;2023-03-14T02:58:11;54.75;;;22.17;;
66179;SDS011;52986;44.028;20.466;2023-03-14T03:00:37;56.70;;;22.08;;
66179;SDS011;52986;44.028;20.466;2023-03-14T03:03:03;42.25;;;18.02;;
66179;SDS011;52986;44.028;20.466;2023-03-14T03:05:33;41.15;;;15.85;;
66179;SDS011;52986;44.028;20.466;2023-03-14T03:07:59;34.45;;;14.32;;
66179;SDS011;52986;44.028;20.466;2023-03-14T03:10:27;35.13;;;14.65;;
66179;SDS011;52986;44.028;20.466;2023-03-14T03:12:53;36.95;;;15.40;;
66179;SDS011;52986;44.028;20.466;2023-03-14T03:15:19;38.92;;;15.90;;
66179;SDS011;52986;44.028;20.466;2023-03-14T03:17:46;37.17;;;14.30;;
66179;SDS011;52986;44.028;20.466;2023-03-14T03:20:35;35.83;;;14.80;;
66179;SDS011;52986;44.028;20.466;2023-03-14T03:23:01;40.25;;;16.30;;
66179;SDS011;52986;44.028;20.466;2023-03-14T03:25:26;36.38;;;16.15;;
66179;SDS011;52986;44.028;20.466;2023-03-14T03:27:52;38.33;;;16.10;;
66179;SDS011;52986;44.028;20.466;2023-03-14T03:30:18;36.20;;;15.15;;
66179;SDS011;52986;44.028;20.466;2023-03-14T03:32:44;35.58;;;14.70;;
66179;SDS011;52986;44.028;20.466;2023-03-14T03:35:09;38.13;;;14.60;;
66179;SDS011;52986;44.028;20.466;2023-03-14T03:37:47;38.90;;;16.33;;
66179;SDS011;52986;44.028;20.466;2023-03-14T03:40:12;45.90;;;18.33;;
66179;SDS011;52986;44.028;20.466;2023-03-14T03:42:37;42.50;;;17.80;;
66179;SDS011;52986;44.028;20.466;2023-03-14T03:45:03;44.50;;;18.25;;
66179;SDS011;52986;44.028;20.466;2023-03-14T03:47:30;39.58;;;17.40;;
66179;SDS011;52986;44.028;20.466;2023-03-14T03:49:56;34.65;;;15.05;;
66179;SDS011;52986;44.028;20.466;2023-03-14T03:52:21;34.13;;;14.45;;
66179;SDS011;52986;44.028;20.466;2023-03-14T03:54:46;42.97;;;17.35;;
66179;SDS011;52986;44.028;20.466;2023-03-14T03:57:12;37.33;;;15.98;;
66179;SDS011;52986;44.028;20.466;2023-03-14T03:59:37;41.10;;;15.77;;
66179;SDS011;52986;44.028;20.466;2023-03-14T04:02:05;43.67;;;16.25;;
66179;SDS011;52986;44.028;20.466;2023-03-14T04:04:30;30.70;;;12.73;;
66179;SDS011;52986;44.028;20.466;2023-03-14T04:06:56;30.98;;;13.40;;
66179;SDS011;52986;44.028;20.466;2023-03-14T04:09:21;36.38;;;15.23;;
66179;SDS011;52986;44.028;20.466;2023-03-14T04:11:46;35.50;;;15.43;;
66179;SDS011;52986;44.028;20.466;2023-03-14T04:14:12;36.78;;;14.77;;
66179;SDS011;52986;44.028;20.466;2023-03-14T04:16:37;37.72;;;16.20;;
66179;SDS011;52986;44.028;20.466;2023-03-14T04:19:05;40.83;;;18.00;;
66179;SDS011;52986;44.028;20.466;2023-03-14T04:21:31;50.92;;;22.55;;
66179;SDS011;52986;44.028;20.466;2023-03-14T04:24:09;48.58;;;19.63;;
66179;SDS011;52986;44.028;20.466;2023-03-14T04:26:35;43.67;;;17.38;;
66179;SDS011;52986;44.028;20.466;2023-03-14T04:29:01;42.17;;;17.57;;
66179;SDS011;52986;44.028;20.466;2023-03-14T04:31:26;40.13;;;16.85;;
66179;SDS011;52986;44.028;20.466;2023-03-14T04:33:51;38.28;;;16.48;;
66179;SDS011;52986;44.028;20.466;2023-03-14T04:36:17;36.78;;;15.80;;
66179;SDS011;52986;44.028;20.466;2023-03-14T04:38:42;37.22;;;15.32;;
66179;SDS011;52986;44.028;20.466;2023-03-14T04:41:08;41.88;;;15.85;;
66179;SDS011;52986;44.028;20.466;2023-03-14T04:43:33;32.35;;;14.25;;
66179;SDS011;52986;44.028;20.466;2023-03-14T04:45:58;35.80;;;13.77;;
66179;SDS011;52986;44.028;20.466;2023-03-14T04:48:24;42.28;;;15.45;;
66179;SDS011;52986;44.028;20.466;2023-03-14T04:50:51;33.85;;;14.90;;
66179;SDS011;52986;44.028;20.466;2023-03-14T04:53:16;39.70;;;15.10;;
66179;SDS011;52986;44.028;20.466;2023-03-14T04:55:47;38.78;;;15.32;;
66179;SDS011;52986;44.028;20.466;2023-03-14T04:58:17;38.00;;;15.52;;
66179;SDS011;52986;44.028;20.466;2023-03-14T05:00:43;41.10;;;16.20;;
66179;SDS011;52986;44.028;20.466;2023-03-14T05:03:09;38.47;;;15.38;;
66179;SDS011;52986;44.028;20.466;2023-03-14T05:05:34;39.00;;;14.93;;
66179;SDS011;52986;44.028;20.466;2023-03-14T05:07:59;40.50;;;15.70;;
66179;SDS011;52986;44.028;20.466;2023-03-14T05:10:25;32.42;;;14.57;;
66179;SDS011;52986;44.028;20.466;2023-03-14T05:12:50;36.78;;;13.70;;
66179;SDS011;52986;44.028;20.466;2023-03-14T05:15:16;31.35;;;12.88;;
66179;SDS011;52986;44.028;20.466;2023-03-14T05:17:41;30.40;;;12.65;;
66179;SDS011;52986;44.028;20.466;2023-03-14T05:20:07;35.80;;;14.73;;
66179;SDS011;52986;44.028;20.466;2023-03-14T05:22:39;34.42;;;14.18;;
66179;SDS011;52986;44.028;20.466;2023-03-14T05:25:05;35.53;;;14.75;;
66179;SDS011;52986;44.028;20.466;2023-03-14T05:27:32;31.30;;;13.70;;
66179;SDS011;52986;44.028;20.466;2023-03-14T05:29:57;37.92;;;15.82;;
66179;SDS011;52986;44.028;20.466;2023-03-14T05:32:23;51.55;;;17.00;;
66179;SDS011;52986;44.028;20.466;2023-03-14T05:34:48;46.72;;;18.73;;
66179;SDS011;52986;44.028;20.466;2023-03-14T05:37:13;49.20;;;19.75;;
66179;SDS011;52986;44.028;20.466;2023-03-14T05:39:39;45.22;;;18.20;;
66179;SDS011;52986;44.028;20.466;2023-03-14T05:42:04;47.33;;;19.02;;
66179;SDS011;52986;44.028;20.466;2023-03-14T05:44:30;50.92;;;19.92;;
66179;SDS011;52986;44.028;20.466;2023-03-14T05:46:55;43.88;;;18.27;;
66179;SDS011;52986;44.028;20.466;2023-03-14T05:49:20;51.70;;;20.45;;
66179;SDS011;52986;44.028;20.466;2023-03-14T05:51:46;56.95;;;21.77;;
66179;SDS011;52986;44.028;20.466;2023-03-14T05:54:11;52.30;;;21.13;;
66179;SDS011;52986;44.028;20.466;2023-03-14T05:56:37;38.72;;;16.48;;
66179;SDS011;52986;44.028;20.466;2023-03-14T05:59:02;40.72;;;16.08;;
66179;SDS011;52986;44.028;20.466;2023-03-14T06:01:28;40.20;;;16.60;;
66179;SDS011;52986;44.028;20.466;2023-03-14T06:03:54;47.75;;;18.95;;
66179;SDS011;52986;44.028;20.466;2023-03-14T06:06:26;42.13;;;16.60;;
66179;SDS011;52986;44.028;20.466;2023-03-14T06:12:13;65.03;;;24.48;;
66179;SDS011;52986;44.028;20.466;2023-03-14T06:14:38;56.22;;;23.27;;
66179;SDS011;52986;44.028;20.466;2023-03-14T06:17:03;69.40;;;24.50;;
66179;SDS011;52986;44.028;20.466;2023-03-14T06:19:29;63.90;;;25.73;;
66179;SDS011;52986;44.028;20.466;2023-03-14T06:21:54;62.20;;;22.92;;
66179;SDS011;52986;44.028;20.466;2023-03-14T06:24:19;55.20;;;22.30;;
66179;SDS011;52986;44.028;20.466;2023-03-14T06:26:45;60.95;;;21.65;;
66179;SDS011;52986;44.028;20.466;2023-03-14T06:29:10;58.78;;;23.35;;
66179;SDS011;52986;44.028;20.466;2023-03-14T06:31:35;46.60;;;19.42;;
66179;SDS011;52986;44.028;20.466;2023-03-14T06:34:01;52.60;;;22.23;;
66179;SDS011;52986;44.028;20.466;2023-03-14T06:36:26;60.50;;;26.08;;
66179;SDS011;52986;44.028;20.466;2023-03-14T06:38:52;61.95;;;26.05;;
66179;SDS011;52986;44.028;20.466;2023-03-14T06:41:17;66.10;;;28.08;;
66179;SDS011;52986;44.028;20.466;2023-03-14T06:43:43;69.95;;;28.60;;
66179;SDS011;52986;44.028;20.466;2023-03-14T06:46:08;63.72;;;26.95;;
66179;SDS011;52986;44.028;20.466;2023-03-14T06:48:33;69.28;;;29.13;;
66179;SDS011;52986;44.028;20.466;2023-03-14T06:50:59;102.55;;;49.50;;
66179;SDS011;52986;44.028;20.466;2023-03-14T06:53:27;93.20;;;39.75;;
66179;SDS011;52986;44.028;20.466;2023-03-14T06:55:56;88.85;;;38.28;;
66179;SDS011;52986;44.028;20.466;2023-03-14T06:58:21;81.20;;;36.03;;
66179;SDS011;52986;44.028;20.466;2023-03-14T07:00:55;76.05;;;36.67;;
66179;SDS011;52986;44.028;20.466;2023-03-14T07:03:27;80.43;;;35.20;;
66179;SDS011;52986;44.028;20.466;2023-03-14T07:05:52;71.15;;;34.53;;
66179;SDS011;52986;44.028;20.466;2023-03-14T07:08:18;78.60;;;32.05;;
66179;SDS011;52986;44.028;20.466;2023-03-14T07:10:50;73.47;;;30.70;;
66179;SDS011;52986;44.028;20.466;2023-03-14T07:13:15;61.58;;;28.17;;
66179;SDS011;52986;44.028;20.466;2023-03-14T07:15:40;56.50;;;27.63;;
66179;SDS011;52986;44.028;20.466;2023-03-14T07:18:06;58.10;;;28.35;;
66179;SDS011;52986;44.028;20.466;2023-03-14T07:20:31;66.35;;;30.25;;
66179;SDS011;52986;44.028;20.466;2023-03-14T07:22:57;56.88;;;26.50;;
66179;SDS011;52986;44.028;20.466;2023-03-14T07:25:33;60.92;;;28.20;;
66179;SDS011;52986;44.028;20.466;2023-03-14T07:27:59;74.28;;;32.05;;
66179;SDS011;52986;44.028;20.466;2023-03-14T07:30:27;65.80;;;29.30;;
66179;SDS011;52986;44.028;20.466;2023-03-14T07:32:52;46.75;;;22.60;;
66179;SDS011;52986;44.028;20.466;2023-03-14T07:35:18;48.67;;;23.80;;
66179;SDS011;52986;44.028;20.466;2023-03-14T07:37:43;59.65;;;23.92;;
66179;SDS011;52986;44.028;20.466;2023-03-14T07:40:09;50.63;;;23.00;;
66179;SDS011;52986;44.028;20.466;2023-03-14T07:42:36;47.65;;;21.65;;
66179;SDS011;52986;44.028;20.466;2023-03-14T07:45:02;48.55;;;21.90;;
66179;SDS011;52986;44.028;20.466;2023-03-14T07:47:28;38.55;;;18.30;;
66179;SDS011;52986;44.028;20.466;2023-03-14T07:49:53;34.35;;;15.45;;
66179;SDS011;52986;44.028;20.466;2023-03-14T07:52:18;31.40;;;14.73;;
66179;SDS011;52986;44.028;20.466;2023-03-14T07:54:44;36.47;;;14.80;;
66179;SDS011;52986;44.028;20.466;2023-03-14T07:57:09;35.47;;;14.90;;
66179;SDS011;52986;44.028;20.466;2023-03-14T07:59:35;27.77;;;10.90;;
66179;SDS011;52986;44.028;20.466;2023-03-14T08:02:00;22.85;;;9.43;;
66179;SDS011;52986;44.028;20.466;2023-03-14T08:04:26;23.67;;;9.65;;
66179;SDS011;52986;44.028;20.466;2023-03-14T08:06:52;21.55;;;9.30;;
66179;SDS011;52986;44.028;20.466;2023-03-14T08:09:19;20.73;;;9.05;;
66179;SDS011;52986;44.028;20.466;2023-03-14T08:11:44;22.13;;;8.32;;
66179;SDS011;52986;44.028;20.466;2023-03-14T08:14:10;25.77;;;8.13;;
66179;SDS011;52986;44.028;20.466;2023-03-14T08:16:36;22.63;;;8.07;;
66179;SDS011;52986;44.028;20.466;2023-03-14T08:19:01;24.73;;;7.65;;
66179;SDS011;52986;44.028;20.466;2023-03-14T08:21:27;20.92;;;8.98;;
66179;SDS011;52986;44.028;20.466;2023-03-14T08:23:52;21.02;;;8.68;;
66179;SDS011;52986;44.028;20.466;2023-03-14T08:26:17;27.17;;;9.70;;
66179;SDS011;52986;44.028;20.466;2023-03-14T08:28:43;23.90;;;10.57;;
66179;SDS011;52986;44.028;20.466;2023-03-14T08:31:08;22.13;;;8.60;;
66179;SDS011;52986;44.028;20.466;2023-03-14T08:33:34;18.65;;;8.45;;
66179;SDS011;52986;44.028;20.466;2023-03-14T08:35:59;18.15;;;8.05;;
66179;SDS011;52986;44.028;20.466;2023-03-14T08:38:25;20.85;;;7.97;;
66179;SDS011;52986;44.028;20.466;2023-03-14T08:40:57;18.63;;;7.68;;
66179;SDS011;52986;44.028;20.466;2023-03-14T08:43:24;23.35;;;8.32;;
66179;SDS011;52986;44.028;20.466;2023-03-14T08:45:49;20.27;;;8.20;;
66179;SDS011;52986;44.028;20.466;2023-03-14T08:48:15;21.27;;;8.50;;
66179;SDS011;52986;44.028;20.466;2023-03-14T08:50:40;19.27;;;8.73;;
66179;SDS011;52986;44.028;20.466;2023-03-14T08:53:05;25.30;;;8.93;;
66179;SDS011;52986;44.028;20.466;2023-03-14T08:55:31;20.13;;;8.98;;
66179;SDS011;52986;44.028;20.466;2023-03-14T08:57:57;21.02;;;8.95;;
66179;SDS011;52986;44.028;20.466;2023-03-14T09:00:22;23.35;;;10.40;;
66179;SDS011;52986;44.028;20.466;2023-03-14T09:02:47;20.80;;;8.93;;
66179;SDS011;52986;44.028;20.466;2023-03-14T09:05:13;18.33;;;8.32;;
66179;SDS011;52986;44.028;20.466;2023-03-14T09:07:39;17.02;;;8.48;;
66179;SDS011;52986;44.028;20.466;2023-03-14T09:10:05;20.25;;;9.40;;
66179;SDS011;52986;44.028;20.466;2023-03-14T09:12:31;32.05;;;10.93;;
66179;SDS011;52986;44.028;20.466;2023-03-14T09:14:57;15.82;;;7.35;;
66179;SDS011;52986;44.028;20.466;2023-03-14T09:17:22;19.95;;;8.68;;
66179;SDS011;52986;44.028;20.466;2023-03-14T09:19:47;18.02;;;8.18;;
66179;SDS011;52986;44.028;20.466;2023-03-14T09:22:13;24.67;;;8.13;;
66179;SDS011;52986;44.028;20.466;2023-03-14T09:24:39;20.65;;;9.10;;
66179;SDS011;52986;44.028;20.466;2023-03-14T09:27:05;19.05;;;8.07;;
66179;SDS011;52986;44.028;20.466;2023-03-14T09:29:32;20.02;;;8.43;;
66179;SDS011;52986;44.028;20.466;2023-03-14T09:31:58;17.35;;;7.25;;
66179;SDS011;52986;44.028;20.466;2023-03-14T09:34:23;25.20;;;8.32;;
66179;SDS011;52986;44.028;20.466;2023-03-14T09:36:48;16.85;;;7.95;;
66179;SDS011;52986;44.028;20.466;2023-03-14T09:39:14;17.25;;;6.75;;
66179;SDS011;52986;44.028;20.466;2023-03-14T09:41:41;18.52;;;8.02;;
66179;SDS011;52986;44.028;20.466;2023-03-14T09:44:11;20.33;;;8.93;;
66179;SDS011;52986;44.028;20.466;2023-03-14T09:46:37;17.92;;;7.68;;
66179;SDS011;52986;44.028;20.466;2023-03-14T09:49:08;18.77;;;7.88;;
66179;SDS011;52986;44.028;20.466;2023-03-14T09:51:37;15.43;;;7.30;;
66179;SDS011;52986;44.028;20.466;2023-03-14T09:54:02;22.45;;;8.15;;
66179;SDS011;52986;44.028;20.466;2023-03-14T09:56:31;15.90;;;7.88;;
66179;SDS011;52986;44.028;20.466;2023-03-14T09:58:58;17.60;;;7.40;;
66179;SDS011;52986;44.028;20.466;2023-03-14T10:01:27;17.88;;;7.97;;
66179;SDS011;52986;44.028;20.466;2023-03-14T10:03:55;13.93;;;6.68;;
66179;SDS011;52986;44.028;20.466;2023-03-14T10:06:26;17.77;;;7.13;;
66179;SDS011;52986;44.028;20.466;2023-03-14T10:08:54;21.35;;;8.68;;
66179;SDS011;52986;44.028;20.466;2023-03-14T10:11:26;15.40;;;7.13;;
66179;SDS011;52986;44.028;20.466;2023-03-14T10:14:11;16.85;;;7.40;;
66179;SDS011;52986;44.028;20.466;2023-03-14T10:17:09;18.58;;;6.90;;
66179;SDS011;52986;44.028;20.466;2023-03-14T10:19:37;16.85;;;7.30;;
66179;SDS011;52986;44.028;20.466;2023-03-14T10:22:15;18.77;;;7.55;;
66179;SDS011;52986;44.028;20.466;2023-03-14T10:24:45;28.83;;;9.07;;
66179;SDS011;52986;44.028;20.466;2023-03-14T10:27:18;17.40;;;7.80;;
66179;SDS011;52986;44.028;20.466;2023-03-14T10:32:38;18.83;;;8.30;;
66179;SDS011;52986;44.028;20.466;2023-03-14T10:37:47;16.33;;;7.68;;
66179;SDS011;52986;44.028;20.466;2023-03-14T10:40:15;15.98;;;7.90;;
66179;SDS011;52986;44.028;20.466;2023-03-14T10:42:43;20.95;;;7.90;;
66179;SDS011;52986;44.028;20.466;2023-03-14T10:48:16;16.77;;;8.00;;
66179;SDS011;52986;44.028;20.466;2023-03-14T10:51:02;17.40;;;6.88;;
66179;SDS011;52986;44.028;20.466;2023-03-14T10:53:47;15.75;;;6.95;;
66179;SDS011;52986;44.028;20.466;2023-03-14T10:56:16;17.85;;;8.52;;
66179;SDS011;52986;44.028;20.466;2023-03-14T10:58:47;17.23;;;7.70;;
66179;SDS011;52986;44.028;20.466;2023-03-14T11:01:23;15.23;;;7.05;;
66179;SDS011;52986;44.028;20.466;2023-03-14T11:12:36;13.27;;;6.15;;
66179;SDS011;52986;44.028;20.466;2023-03-14T11:20:53;13.48;;;5.82;;
66179;SDS011;52986;44.028;20.466;2023-03-14T11:23:21;13.98;;;5.20;;
66179;SDS011;52986;44.028;20.466;2023-03-14T11:28:46;12.38;;;5.65;;
66179;SDS011;52986;44.028;20.466;2023-03-14T11:31:23;17.58;;;7.68;;
66179;SDS011;52986;44.028;20.466;2023-03-14T11:36:23;19.13;;;8.13;;
66179;SDS011;52986;44.028;20.466;2023-03-14T11:38:58;11.50;;;5.00;;
66179;SDS011;52986;44.028;20.466;2023-03-14T11:43:59;24.85;;;7.80;;
66179;SDS011;52986;44.028;20.466;2023-03-14T11:46:29;17.48;;;6.40;;
66179;SDS011;52986;44.028;20.466;2023-03-14T11:49:14;14.68;;;6.88;;
66179;SDS011;52986;44.028;20.466;2023-03-14T11:51:43;11.93;;;4.65;;
66179;SDS011;52986;44.028;20.466;2023-03-14T11:56:53;11.73;;;5.05;;
66179;SDS011;52986;44.028;20.466;2023-03-14T11:59:30;14.77;;;5.68;;
66179;SDS011;52986;44.028;20.466;2023-03-14T12:13:18;12.48;;;4.50;;
66179;SDS011;52986;44.028;20.466;2023-03-14T12:15:49;14.55;;;4.28;;
66179;SDS011;52986;44.028;20.466;2023-03-14T12:18:30;13.48;;;4.32;;
66179;SDS011;52986;44.028;20.466;2023-03-14T12:23:24;9.63;;;3.83;;
66179;SDS011;52986;44.028;20.466;2023-03-14T12:28:35;10.98;;;4.20;;
66179;SDS011;52986;44.028;20.466;2023-03-14T12:31:44;10.80;;;4.30;;
66179;SDS011;52986;44.028;20.466;2023-03-14T12:34:03;11.00;;;3.78;;
66179;SDS011;52986;44.028;20.466;2023-03-14T12:39:53;11.73;;;3.45;;
66179;SDS011;52986;44.028;20.466;2023-03-14T12:42:11;10.57;;;4.10;;
66179;SDS011;52986;44.028;20.466;2023-03-14T12:44:45;11.32;;;3.90;;
66179;SDS011;52986;44.028;20.466;2023-03-14T12:48:00;11.35;;;4.20;;
66179;SDS011;52986;44.028;20.466;2023-03-14T12:49:58;9.80;;;3.88;;
66179;SDS011;52986;44.028;20.466;2023-03-14T12:52:48;11.15;;;3.95;;
66179;SDS011;52986;44.028;20.466;2023-03-14T13:00:24;10.88;;;4.13;;
66179;SDS011;52986;44.028;20.466;2023-03-14T13:03:02;8.77;;;3.63;;
66179;SDS011;52986;44.028;20.466;2023-03-14T13:05:51;14.35;;;4.07;;
66179;SDS011;52986;44.028;20.466;2023-03-14T13:08:31;10.68;;;3.85;;
66179;SDS011;52986;44.028;20.466;2023-03-14T13:10:59;10.45;;;4.03;;
66179;SDS011;52986;44.028;20.466;2023-03-14T13:13:27;12.52;;;3.95;;
66179;SDS011;52986;44.028;20.466;2023-03-14T13:15:54;15.65;;;4.18;;
66179;SDS011;52986;44.028;20.466;2023-03-14T13:18:30;11.77;;;4.35;;
66179;SDS011;52986;44.028;20.466;2023-03-14T13:23:40;14.43;;;4.15;;
66179;SDS011;52986;44.028;20.466;2023-03-14T13:26:09;13.63;;;3.92;;
66179;SDS011;52986;44.028;20.466;2023-03-14T13:28:38;12.60;;;4.05;;
66179;SDS011;52986;44.028;20.466;2023-03-14T13:31:03;10.40;;;3.92;;
66179;SDS011;52986;44.028;20.466;2023-03-14T13:33:31;14.95;;;4.28;;
66179;SDS011;52986;44.028;20.466;2023-03-14T13:35:59;12.48;;;4.35;;
66179;SDS011;52986;44.028;20.466;2023-03-14T13:38:32;12.25;;;4.47;;
66179;SDS011;52986;44.028;20.466;2023-03-14T13:40:59;12.10;;;4.72;;
66179;SDS011;52986;44.028;20.466;2023-03-14T13:43:32;10.50;;;3.60;;
66179;SDS011;52986;44.028;20.466;2023-03-14T13:48:43;12.02;;;4.03;;
66179;SDS011;52986;44.028;20.466;2023-03-14T13:51:12;16.35;;;6.32;;
66179;SDS011;52986;44.028;20.466;2023-03-14T13:56:10;14.02;;;5.00;;
66179;SDS011;52986;44.028;20.466;2023-03-14T13:58:37;14.52;;;5.22;;
66179;SDS011;52986;44.028;20.466;2023-03-14T14:01:05;12.52;;;5.18;;
66179;SDS011;52986;44.028;20.466;2023-03-14T14:03:36;10.07;;;3.80;;
66179;SDS011;52986;44.028;20.466;2023-03-14T14:06:04;8.63;;;3.40;;
66179;SDS011;52986;44.028;20.466;2023-03-14T14:08:35;12.73;;;4.05;;
66179;SDS011;52986;44.028;20.466;2023-03-14T14:11:05;12.77;;;4.32;;
66179;SDS011;52986;44.028;20.466;2023-03-14T14:13:31;14.77;;;4.50;;
66179;SDS011;52986;44.028;20.466;2023-03-14T14:15:59;11.13;;;4.28;;
66179;SDS011;52986;44.028;20.466;2023-03-14T14:18:28;13.32;;;4.30;;
66179;SDS011;52986;44.028;20.466;2023-03-14T14:20:56;11.68;;;4.45;;
66179;SDS011;52986;44.028;20.466;2023-03-14T14:23:23;12.93;;;4.55;;
66179;SDS011;52986;44.028;20.466;2023-03-14T14:25:53;13.00;;;4.93;;
66179;SDS011;52986;44.028;20.466;2023-03-14T14:31:04;17.85;;;5.22;;
66179;SDS011;52986;44.028;20.466;2023-03-14T14:33:37;10.38;;;4.63;;
66179;SDS011;52986;44.028;20.466;2023-03-14T14:36:04;16.13;;;5.00;;
66179;SDS011;52986;44.028;20.466;2023-03-14T14:38:37;10.90;;;4.60;;
66179;SDS011;52986;44.028;20.466;2023-03-14T14:41:03;16.50;;;5.55;;
66179;SDS011;52986;44.028;20.466;2023-03-14T14:43:28;15.43;;;4.90;;
66179;SDS011;52986;44.028;20.466;2023-03-14T14:45:58;13.65;;;5.72;;
66179;SDS011;52986;44.028;20.466;2023-03-14T14:48:25;14.60;;;5.93;;
66179;SDS011;52986;44.028;20.466;2023-03-14T14:51:00;14.70;;;5.72;;
66179;SDS011;52986;44.028;20.466;2023-03-14T14:53:36;16.13;;;5.78;;
66179;SDS011;52986;44.028;20.466;2023-03-14T14:56:04;15.02;;;5.40;;
66179;SDS011;52986;44.028;20.466;2023-03-14T14:58:36;13.05;;;4.88;;
66179;SDS011;52986;44.028;20.466;2023-03-14T15:01:08;11.38;;;4.88;;
66179;SDS011;52986;44.028;20.466;2023-03-14T15:03:39;12.70;;;4.70;;
66179;SDS011;52986;44.028;20.466;2023-03-14T15:06:12;17.45;;;5.40;;
66179;SDS011;52986;44.028;20.466;2023-03-14T15:08:39;11.57;;;4.43;;
66179;SDS011;52986;44.028;20.466;2023-03-14T15:11:08;11.45;;;4.32;;
66179;SDS011;52986;44.028;20.466;2023-03-14T15:13:40;13.40;;;4.60;;
66179;SDS011;52986;44.028;20.466;2023-03-14T15:16:08;12.82;;;4.38;;
66179;SDS011;52986;44.028;20.466;2023-03-14T15:18:35;12.40;;;5.25;;
66179;SDS011;52986;44.028;20.466;2023-03-14T15:21:01;12.98;;;5.10;;
66179;SDS011;52986;44.028;20.466;2023-03-14T15:23:26;14.45;;;4.70;;
66179;SDS011;52986;44.028;20.466;2023-03-14T15:25:51;16.45;;;6.40;;
66179;SDS011;52986;44.028;20.466;2023-03-14T15:28:18;19.00;;;7.60;;
66179;SDS011;52986;44.028;20.466;2023-03-14T15:30:46;17.50;;;7.47;;
66179;SDS011;52986;44.028;20.466;2023-03-14T15:33:12;19.60;;;7.97;;
66179;SDS011;52986;44.028;20.466;2023-03-14T15:35:38;26.73;;;9.18;;
66179;SDS011;52986;44.028;20.466;2023-03-14T15:38:03;23.33;;;8.45;;
66179;SDS011;52986;44.028;20.466;2023-03-14T15:40:29;20.02;;;8.82;;
66179;SDS011;52986;44.028;20.466;2023-03-14T15:42:55;25.27;;;10.00;;